sensor_id;sensor_type;location;lat;lon;timestamp;P1;durP1;ratioP1;P2;durP2;ratioP2
49784;SDS011;35679;38.732;-121.358;2022-12-13T00:01:14;1.95;;;1.95;;
49784;SDS011;35679;38.732;-121.358;2022-12-13T00:04:06;2.17;;;2.08;;
49784;SDS011;35679;38.732;-121.358;2022-12-13T00:06:56;1.88;;;1.88;;
49784;SDS011;35679;38.732;-121.358;2022-12-13T00:09:46;1.70;;;1.70;;
49784;SDS011;35679;38.732;-121.358;2022-12-13T00:12:35;1.90;;;1.90;;
49784;SDS011;35679;38.732;-121.358;2022-12-13T00:15:25;1.80;;;1.80;;
49784;SDS011;35679;38.732;-121.358;2022-12-13T00:18:15;1.80;;;1.80;;
49784;SDS011;35679;38.732;-121.358;2022-12-13T00:21:08;2.00;;;1.90;;
49784;SDS011;35679;38.732;-121.358;2022-12-13T00:24:01;1.98;;;1.98;;
49784;SDS011;35679;38.732;-121.358;2022-12-13T00:26:55;2.13;;;2.13;;
49784;SDS011;35679;38.732;-121.358;2022-12-13T00:29:45;2.10;;;2.05;;
49784;SDS011;35679;38.732;-121.358;2022-12-13T00:32:34;2.10;;;2.10;;
49784;SDS011;35679;38.732;-121.358;2022-12-13T00:35:24;2.05;;;1.98;;
49784;SDS011;35679;38.732;-121.358;2022-12-13T00:38:14;2.22;;;2.13;;
49784;SDS011;35679;38.732;-121.358;2022-12-13T00:41:14;1.98;;;1.98;;
49784;SDS011;35679;38.732;-121.358;2022-12-13T00:46:59;2.10;;;2.10;;
49784;SDS011;35679;38.732;-121.358;2022-12-13T00:49:48;2.20;;;2.10;;
49784;SDS011;35679;38.732;-121.358;2022-12-13T00:52:38;2.10;;;2.10;;
49784;SDS011;35679;38.732;-121.358;2022-12-13T00:55:27;2.30;;;2.20;;
49784;SDS011;35679;38.732;-121.358;2022-12-13T00:58:17;2.00;;;2.00;;
49784;SDS011;35679;38.732;-121.358;2022-12-13T01:01:07;2.10;;;2.10;;
49784;SDS011;35679;38.732;-121.358;2022-12-13T01:03:59;2.00;;;2.00;;
49784;SDS011;35679;38.732;-121.358;2022-12-13T01:06:50;2.00;;;2.00;;
49784;SDS011;35679;38.732;-121.358;2022-12-13T01:09:41;1.90;;;1.90;;
49784;SDS011;35679;38.732;-121.358;2022-12-13T01:12:32;2.20;;;2.20;;
49784;SDS011;35679;38.732;-121.358;2022-12-13T01:15:22;1.90;;;1.90;;
49784;SDS011;35679;38.732;-121.358;2022-12-13T01:18:12;2.20;;;2.10;;
49784;SDS011;35679;38.732;-121.358;2022-12-13T01:21:09;1.90;;;1.90;;
49784;SDS011;35679;38.732;-121.358;2022-12-13T01:24:03;2.00;;;2.00;;
49784;SDS011;35679;38.732;-121.358;2022-12-13T01:26:53;2.10;;;2.10;;
49784;SDS011;35679;38.732;-121.358;2022-12-13T01:29:43;2.03;;;1.92;;
49784;SDS011;35679;38.732;-121.358;2022-12-13T01:32:33;2.10;;;2.00;;
49784;SDS011;35679;38.732;-121.358;2022-12-13T01:35:22;1.90;;;1.90;;
49784;SDS011;35679;38.732;-121.358;2022-12-13T01:38:12;1.88;;;1.88;;
49784;SDS011;35679;38.732;-121.358;2022-12-13T01:41:05;2.17;;;2.10;;
49784;SDS011;35679;38.732;-121.358;2022-12-13T01:44:05;1.83;;;1.80;;
49784;SDS011;35679;38.732;-121.358;2022-12-13T01:47:15;2.00;;;1.90;;
49784;SDS011;35679;38.732;-121.358;2022-12-13T01:50:24;2.30;;;2.20;;
49784;SDS011;35679;38.732;-121.358;2022-12-13T01:53:18;2.45;;;2.35;;
49784;SDS011;35679;38.732;-121.358;2022-12-13T01:56:16;2.38;;;2.28;;
49784;SDS011;35679;38.732;-121.358;2022-12-13T01:59:11;2.70;;;2.50;;
49784;SDS011;35679;38.732;-121.358;2022-12-13T02:02:06;2.40;;;2.28;;
49784;SDS011;35679;38.732;-121.358;2022-12-13T02:05:01;2.55;;;2.35;;
49784;SDS011;35679;38.732;-121.358;2022-12-13T02:07:55;2.47;;;2.38;;
49784;SDS011;35679;38.732;-121.358;2022-12-13T02:10:46;2.47;;;2.35;;
49784;SDS011;35679;38.732;-121.358;2022-12-13T02:13:36;2.75;;;2.65;;
49784;SDS011;35679;38.732;-121.358;2022-12-13T02:22:32;2.92;;;2.50;;
49784;SDS011;35679;38.732;-121.358;2022-12-13T02:35:48;3.13;;;2.80;;
49784;SDS011;35679;38.732;-121.358;2022-12-13T02:42:25;3.05;;;2.85;;
49784;SDS011;35679;38.732;-121.358;2022-12-13T02:45:40;2.75;;;2.63;;
49784;SDS011;35679;38.732;-121.358;2022-12-13T02:48:33;3.97;;;2.90;;
49784;SDS011;35679;38.732;-121.358;2022-12-13T02:51:26;2.78;;;2.58;;
49784;SDS011;35679;38.732;-121.358;2022-12-13T02:54:18;3.17;;;2.95;;
49784;SDS011;35679;38.732;-121.358;2022-12-13T02:57:30;2.92;;;2.72;;
49784;SDS011;35679;38.732;-121.358;2022-12-13T03:00:44;2.80;;;2.60;;
49784;SDS011;35679;38.732;-121.358;2022-12-13T03:03:51;3.15;;;2.85;;
49784;SDS011;35679;38.732;-121.358;2022-12-13T03:10:14;3.25;;;2.90;;
49784;SDS011;35679;38.732;-121.358;2022-12-13T03:13:18;3.20;;;3.00;;
49784;SDS011;35679;38.732;-121.358;2022-12-13T03:16:36;3.00;;;2.80;;
49784;SDS011;35679;38.732;-121.358;2022-12-13T03:19:34;3.20;;;3.00;;
49784;SDS011;35679;38.732;-121.358;2022-12-13T03:22:24;3.47;;;3.17;;
49784;SDS011;35679;38.732;-121.358;2022-12-13T03:25:14;3.60;;;3.22;;
49784;SDS011;35679;38.732;-121.358;2022-12-13T03:28:18;3.17;;;2.92;;
49784;SDS011;35679;38.732;-121.358;2022-12-13T03:31:09;3.35;;;3.05;;
49784;SDS011;35679;38.732;-121.358;2022-12-13T03:33:58;3.28;;;2.97;;
49784;SDS011;35679;38.732;-121.358;2022-12-13T03:36:50;3.42;;;3.13;;
49784;SDS011;35679;38.732;-121.358;2022-12-13T03:39:42;4.00;;;3.70;;
49784;SDS011;35679;38.732;-121.358;2022-12-13T03:42:31;3.42;;;3.20;;
49784;SDS011;35679;38.732;-121.358;2022-12-13T03:45:21;3.35;;;3.05;;
49784;SDS011;35679;38.732;-121.358;2022-12-13T03:48:11;3.70;;;3.15;;
49784;SDS011;35679;38.732;-121.358;2022-12-13T03:51:08;3.70;;;3.25;;
49784;SDS011;35679;38.732;-121.358;2022-12-13T03:53:58;3.60;;;3.30;;
49784;SDS011;35679;38.732;-121.358;2022-12-13T03:56:47;4.18;;;3.78;;
49784;SDS011;35679;38.732;-121.358;2022-12-13T03:59:37;4.97;;;3.50;;
49784;SDS011;35679;38.732;-121.358;2022-12-13T04:02:26;3.40;;;3.20;;
49784;SDS011;35679;38.732;-121.358;2022-12-13T04:05:18;3.70;;;3.30;;
49784;SDS011;35679;38.732;-121.358;2022-12-13T04:08:07;3.67;;;3.38;;
49784;SDS011;35679;38.732;-121.358;2022-12-13T04:11:09;5.00;;;3.75;;
49784;SDS011;35679;38.732;-121.358;2022-12-13T04:14:16;3.80;;;3.50;;
49784;SDS011;35679;38.732;-121.358;2022-12-13T04:17:09;5.72;;;3.97;;
49784;SDS011;35679;38.732;-121.358;2022-12-13T04:19:58;4.13;;;3.70;;
49784;SDS011;35679;38.732;-121.358;2022-12-13T04:22:48;4.40;;;4.00;;
49784;SDS011;35679;38.732;-121.358;2022-12-13T04:25:38;4.55;;;3.65;;
49784;SDS011;35679;38.732;-121.358;2022-12-13T04:28:28;4.93;;;4.30;;
49784;SDS011;35679;38.732;-121.358;2022-12-13T04:31:17;4.78;;;4.22;;
49784;SDS011;35679;38.732;-121.358;2022-12-13T04:34:07;5.45;;;4.32;;
49784;SDS011;35679;38.732;-121.358;2022-12-13T04:37:00;5.20;;;4.38;;
49784;SDS011;35679;38.732;-121.358;2022-12-13T04:39:49;4.75;;;4.32;;
49784;SDS011;35679;38.732;-121.358;2022-12-13T04:42:47;4.88;;;4.25;;
49784;SDS011;35679;38.732;-121.358;2022-12-13T04:45:43;5.60;;;4.60;;
49784;SDS011;35679;38.732;-121.358;2022-12-13T04:48:33;4.95;;;3.85;;
49784;SDS011;35679;38.732;-121.358;2022-12-13T04:51:22;5.65;;;4.57;;
49784;SDS011;35679;38.732;-121.358;2022-12-13T04:54:12;5.70;;;4.45;;
49784;SDS011;35679;38.732;-121.358;2022-12-13T04:57:11;6.35;;;4.80;;
49784;SDS011;35679;38.732;-121.358;2022-12-13T05:00:02;5.60;;;4.65;;
49784;SDS011;35679;38.732;-121.358;2022-12-13T05:02:54;6.35;;;4.60;;
49784;SDS011;35679;38.732;-121.358;2022-12-13T05:05:43;5.50;;;4.60;;
49784;SDS011;35679;38.732;-121.358;2022-12-13T05:08:33;5.78;;;4.65;;
49784;SDS011;35679;38.732;-121.358;2022-12-13T05:11:23;4.68;;;4.13;;
49784;SDS011;35679;38.732;-121.358;2022-12-13T05:14:22;4.68;;;4.28;;
49784;SDS011;35679;38.732;-121.358;2022-12-13T05:17:11;5.32;;;4.47;;
49784;SDS011;35679;38.732;-121.358;2022-12-13T05:20:01;4.95;;;4.45;;
49784;SDS011;35679;38.732;-121.358;2022-12-13T05:22:51;5.00;;;4.15;;
49784;SDS011;35679;38.732;-121.358;2022-12-13T05:25:43;5.18;;;4.68;;
49784;SDS011;35679;38.732;-121.358;2022-12-13T05:28:35;4.80;;;4.30;;
49784;SDS011;35679;38.732;-121.358;2022-12-13T05:31:25;5.30;;;4.80;;
49784;SDS011;35679;38.732;-121.358;2022-12-13T05:34:15;4.68;;;4.22;;
49784;SDS011;35679;38.732;-121.358;2022-12-13T05:37:04;5.57;;;4.82;;
49784;SDS011;35679;38.732;-121.358;2022-12-13T05:39:54;4.60;;;4.20;;
49784;SDS011;35679;38.732;-121.358;2022-12-13T05:42:44;5.00;;;4.50;;
49784;SDS011;35679;38.732;-121.358;2022-12-13T05:45:33;4.70;;;4.30;;
49784;SDS011;35679;38.732;-121.358;2022-12-13T05:48:23;5.95;;;4.80;;
49784;SDS011;35679;38.732;-121.358;2022-12-13T05:51:12;5.93;;;4.78;;
49784;SDS011;35679;38.732;-121.358;2022-12-13T05:54:02;4.78;;;4.38;;
49784;SDS011;35679;38.732;-121.358;2022-12-13T05:56:52;4.72;;;4.22;;
49784;SDS011;35679;38.732;-121.358;2022-12-13T05:59:42;5.57;;;4.70;;
49784;SDS011;35679;38.732;-121.358;2022-12-13T06:02:36;4.70;;;4.30;;
49784;SDS011;35679;38.732;-121.358;2022-12-13T06:05:27;5.43;;;4.78;;
49784;SDS011;35679;38.732;-121.358;2022-12-13T06:08:17;4.60;;;4.20;;
49784;SDS011;35679;38.732;-121.358;2022-12-13T06:11:12;4.68;;;4.30;;
49784;SDS011;35679;38.732;-121.358;2022-12-13T06:14:18;5.68;;;4.78;;
49784;SDS011;35679;38.732;-121.358;2022-12-13T06:17:09;5.38;;;4.35;;
49784;SDS011;35679;38.732;-121.358;2022-12-13T06:19:59;4.75;;;4.25;;
49784;SDS011;35679;38.732;-121.358;2022-12-13T06:23:09;5.25;;;4.40;;
49784;SDS011;35679;38.732;-121.358;2022-12-13T06:26:01;4.60;;;4.20;;
49784;SDS011;35679;38.732;-121.358;2022-12-13T06:31:41;4.40;;;4.03;;
49784;SDS011;35679;38.732;-121.358;2022-12-13T06:34:31;5.22;;;4.72;;
49784;SDS011;35679;38.732;-121.358;2022-12-13T06:37:22;4.85;;;4.28;;
49784;SDS011;35679;38.732;-121.358;2022-12-13T06:40:12;4.93;;;4.53;;
49784;SDS011;35679;38.732;-121.358;2022-12-13T06:43:09;5.35;;;4.55;;
49784;SDS011;35679;38.732;-121.358;2022-12-13T06:45:58;5.28;;;4.70;;
49784;SDS011;35679;38.732;-121.358;2022-12-13T06:48:50;5.03;;;4.47;;
49784;SDS011;35679;38.732;-121.358;2022-12-13T06:51:40;4.78;;;4.38;;
49784;SDS011;35679;38.732;-121.358;2022-12-13T06:54:30;4.57;;;4.15;;
49784;SDS011;35679;38.732;-121.358;2022-12-13T06:57:20;5.20;;;4.70;;
49784;SDS011;35679;38.732;-121.358;2022-12-13T07:00:10;4.70;;;4.20;;
49784;SDS011;35679;38.732;-121.358;2022-12-13T07:03:08;4.68;;;4.15;;
49784;SDS011;35679;38.732;-121.358;2022-12-13T07:06:02;4.93;;;4.43;;
49784;SDS011;35679;38.732;-121.358;2022-12-13T07:08:55;5.18;;;4.70;;
49784;SDS011;35679;38.732;-121.358;2022-12-13T07:11:45;5.40;;;4.90;;
49784;SDS011;35679;38.732;-121.358;2022-12-13T07:14:39;5.28;;;4.78;;
49784;SDS011;35679;38.732;-121.358;2022-12-13T07:17:28;4.50;;;4.10;;
49784;SDS011;35679;38.732;-121.358;2022-12-13T07:20:20;5.40;;;4.85;;
49784;SDS011;35679;38.732;-121.358;2022-12-13T07:23:11;4.80;;;4.40;;
49784;SDS011;35679;38.732;-121.358;2022-12-13T07:26:03;4.97;;;4.57;;
49784;SDS011;35679;38.732;-121.358;2022-12-13T07:28:54;5.22;;;4.72;;
49784;SDS011;35679;38.732;-121.358;2022-12-13T07:31:44;4.57;;;4.18;;
49784;SDS011;35679;38.732;-121.358;2022-12-13T07:34:34;5.03;;;4.60;;
49784;SDS011;35679;38.732;-121.358;2022-12-13T07:37:23;5.40;;;4.60;;
49784;SDS011;35679;38.732;-121.358;2022-12-13T07:40:17;5.22;;;4.72;;
49784;SDS011;35679;38.732;-121.358;2022-12-13T07:43:06;4.75;;;4.35;;
49784;SDS011;35679;38.732;-121.358;2022-12-13T07:45:58;5.07;;;4.65;;
49784;SDS011;35679;38.732;-121.358;2022-12-13T07:48:49;5.18;;;4.57;;
49784;SDS011;35679;38.732;-121.358;2022-12-13T07:51:48;5.28;;;4.78;;
49784;SDS011;35679;38.732;-121.358;2022-12-13T07:54:37;5.10;;;4.60;;
49784;SDS011;35679;38.732;-121.358;2022-12-13T07:57:27;5.53;;;4.90;;
49784;SDS011;35679;38.732;-121.358;2022-12-13T08:00:17;6.28;;;4.80;;
49784;SDS011;35679;38.732;-121.358;2022-12-13T08:03:06;5.22;;;4.72;;
49784;SDS011;35679;38.732;-121.358;2022-12-13T08:06:12;5.63;;;5.05;;
49784;SDS011;35679;38.732;-121.358;2022-12-13T08:09:02;5.38;;;4.85;;
49784;SDS011;35679;38.732;-121.358;2022-12-13T08:11:52;5.13;;;4.63;;
49784;SDS011;35679;38.732;-121.358;2022-12-13T08:14:41;5.13;;;4.55;;
49784;SDS011;35679;38.732;-121.358;2022-12-13T08:17:31;8.73;;;5.03;;
49784;SDS011;35679;38.732;-121.358;2022-12-13T08:20:20;5.00;;;4.60;;
49784;SDS011;35679;38.732;-121.358;2022-12-13T08:23:10;5.25;;;4.75;;
49784;SDS011;35679;38.732;-121.358;2022-12-13T08:26:00;5.15;;;4.65;;
49784;SDS011;35679;38.732;-121.358;2022-12-13T08:28:50;6.15;;;4.63;;
49784;SDS011;35679;38.732;-121.358;2022-12-13T08:31:40;5.15;;;4.60;;
49784;SDS011;35679;38.732;-121.358;2022-12-13T08:34:30;5.47;;;4.90;;
49784;SDS011;35679;38.732;-121.358;2022-12-13T08:37:19;5.30;;;4.82;;
49784;SDS011;35679;38.732;-121.358;2022-12-13T08:40:09;5.90;;;4.68;;
49784;SDS011;35679;38.732;-121.358;2022-12-13T08:42:59;6.97;;;5.38;;
49784;SDS011;35679;38.732;-121.358;2022-12-13T08:45:49;5.70;;;5.20;;
49784;SDS011;35679;38.732;-121.358;2022-12-13T08:48:47;5.78;;;5.28;;
49784;SDS011;35679;38.732;-121.358;2022-12-13T08:51:37;5.65;;;5.13;;
49784;SDS011;35679;38.732;-121.358;2022-12-13T08:54:26;5.60;;;4.85;;
49784;SDS011;35679;38.732;-121.358;2022-12-13T08:57:18;6.40;;;5.30;;
49784;SDS011;35679;38.732;-121.358;2022-12-13T09:00:11;6.10;;;5.00;;
49784;SDS011;35679;38.732;-121.358;2022-12-13T09:03:03;5.43;;;4.93;;
49784;SDS011;35679;38.732;-121.358;2022-12-13T09:05:56;5.93;;;5.10;;
49784;SDS011;35679;38.732;-121.358;2022-12-13T09:08:53;5.97;;;5.15;;
49784;SDS011;35679;38.732;-121.358;2022-12-13T09:11:42;5.85;;;4.78;;
49784;SDS011;35679;38.732;-121.358;2022-12-13T09:14:32;5.25;;;4.80;;
49784;SDS011;35679;38.732;-121.358;2022-12-13T09:17:32;5.30;;;4.63;;
49784;SDS011;35679;38.732;-121.358;2022-12-13T09:20:23;5.93;;;5.25;;
49784;SDS011;35679;38.732;-121.358;2022-12-13T09:23:16;5.80;;;5.30;;
49784;SDS011;35679;38.732;-121.358;2022-12-13T09:26:11;5.25;;;4.75;;
49784;SDS011;35679;38.732;-121.358;2022-12-13T09:29:02;6.13;;;5.00;;
49784;SDS011;35679;38.732;-121.358;2022-12-13T09:31:59;5.40;;;4.90;;
49784;SDS011;35679;38.732;-121.358;2022-12-13T09:34:49;5.40;;;4.90;;
49784;SDS011;35679;38.732;-121.358;2022-12-13T09:37:39;5.65;;;5.15;;
49784;SDS011;35679;38.732;-121.358;2022-12-13T09:40:32;6.30;;;5.00;;
49784;SDS011;35679;38.732;-121.358;2022-12-13T09:43:27;5.00;;;4.53;;
49784;SDS011;35679;38.732;-121.358;2022-12-13T09:46:31;6.45;;;4.90;;
49784;SDS011;35679;38.732;-121.358;2022-12-13T09:49:35;4.78;;;4.30;;
49784;SDS011;35679;38.732;-121.358;2022-12-13T09:52:29;5.13;;;4.63;;
49784;SDS011;35679;38.732;-121.358;2022-12-13T09:55:35;6.45;;;4.97;;
49784;SDS011;35679;38.732;-121.358;2022-12-13T09:58:29;6.38;;;5.00;;
49784;SDS011;35679;38.732;-121.358;2022-12-13T10:01:20;5.38;;;4.63;;
49784;SDS011;35679;38.732;-121.358;2022-12-13T10:04:11;5.38;;;4.93;;
49784;SDS011;35679;38.732;-121.358;2022-12-13T10:07:09;4.68;;;4.28;;
49784;SDS011;35679;38.732;-121.358;2022-12-13T10:10:05;5.38;;;4.75;;
49784;SDS011;35679;38.732;-121.358;2022-12-13T10:19:33;5.22;;;4.60;;
49784;SDS011;35679;38.732;-121.358;2022-12-13T10:22:26;4.70;;;4.30;;
49784;SDS011;35679;38.732;-121.358;2022-12-13T10:25:16;5.05;;;4.55;;
49784;SDS011;35679;38.732;-121.358;2022-12-13T10:28:50;4.82;;;4.43;;
49784;SDS011;35679;38.732;-121.358;2022-12-13T10:31:51;4.50;;;4.05;;
49784;SDS011;35679;38.732;-121.358;2022-12-13T10:34:41;4.43;;;4.03;;
49784;SDS011;35679;38.732;-121.358;2022-12-13T10:37:31;5.15;;;4.63;;
49784;SDS011;35679;38.732;-121.358;2022-12-13T10:46:16;4.65;;;4.13;;
49784;SDS011;35679;38.732;-121.358;2022-12-13T10:49:55;4.70;;;4.30;;
49784;SDS011;35679;38.732;-121.358;2022-12-13T10:52:37;4.10;;;3.80;;
49784;SDS011;35679;38.732;-121.358;2022-12-13T10:55:33;4.57;;;3.95;;
49784;SDS011;35679;38.732;-121.358;2022-12-13T10:58:35;5.40;;;4.60;;
49784;SDS011;35679;38.732;-121.358;2022-12-13T11:01:29;5.18;;;4.28;;
49784;SDS011;35679;38.732;-121.358;2022-12-13T11:13:57;4.95;;;4.50;;
49784;SDS011;35679;38.732;-121.358;2022-12-13T11:16:33;4.95;;;4.22;;
49784;SDS011;35679;38.732;-121.358;2022-12-13T11:19:32;4.65;;;4.25;;
49784;SDS011;35679;38.732;-121.358;2022-12-13T11:22:31;4.63;;;4.22;;
49784;SDS011;35679;38.732;-121.358;2022-12-13T11:25:26;4.70;;;4.30;;
49784;SDS011;35679;38.732;-121.358;2022-12-13T11:37:51;4.55;;;4.13;;
49784;SDS011;35679;38.732;-121.358;2022-12-13T11:41:08;4.72;;;4.32;;
49784;SDS011;35679;38.732;-121.358;2022-12-13T11:47:37;4.60;;;4.20;;
49784;SDS011;35679;38.732;-121.358;2022-12-13T11:50:33;4.70;;;4.28;;
49784;SDS011;35679;38.732;-121.358;2022-12-13T11:56:39;4.63;;;4.18;;
49784;SDS011;35679;38.732;-121.358;2022-12-13T12:02:40;5.30;;;4.80;;
49784;SDS011;35679;38.732;-121.358;2022-12-13T12:05:39;5.18;;;4.78;;
49784;SDS011;35679;38.732;-121.358;2022-12-13T12:09:02;4.72;;;4.32;;
49784;SDS011;35679;38.732;-121.358;2022-12-13T12:12:02;4.80;;;4.28;;
49784;SDS011;35679;38.732;-121.358;2022-12-13T12:15:43;4.93;;;4.53;;
49784;SDS011;35679;38.732;-121.358;2022-12-13T12:18:31;6.50;;;4.90;;
49784;SDS011;35679;38.732;-121.358;2022-12-13T12:22:04;4.93;;;4.53;;
49784;SDS011;35679;38.732;-121.358;2022-12-13T12:35:43;4.85;;;4.35;;
49784;SDS011;35679;38.732;-121.358;2022-12-13T12:41:22;5.43;;;4.93;;
49784;SDS011;35679;38.732;-121.358;2022-12-13T12:51:18;4.75;;;4.35;;
49784;SDS011;35679;38.732;-121.358;2022-12-13T12:54:58;4.82;;;4.40;;
49784;SDS011;35679;38.732;-121.358;2022-12-13T13:04:32;4.70;;;4.28;;
49784;SDS011;35679;38.732;-121.358;2022-12-13T13:07:34;4.68;;;4.25;;
49784;SDS011;35679;38.732;-121.358;2022-12-13T13:10:27;4.63;;;4.22;;
49784;SDS011;35679;38.732;-121.358;2022-12-13T13:16:37;5.22;;;4.43;;
49784;SDS011;35679;38.732;-121.358;2022-12-13T13:22:30;5.35;;;4.50;;
49784;SDS011;35679;38.732;-121.358;2022-12-13T13:25:32;4.40;;;4.05;;
49784;SDS011;35679;38.732;-121.358;2022-12-13T13:28:43;4.50;;;4.13;;
49784;SDS011;35679;38.732;-121.358;2022-12-13T13:32:20;4.60;;;4.20;;
49784;SDS011;35679;38.732;-121.358;2022-12-13T13:34:51;4.45;;;4.05;;
49784;SDS011;35679;38.732;-121.358;2022-12-13T13:37:47;4.82;;;4.43;;
49784;SDS011;35679;38.732;-121.358;2022-12-13T13:40:37;4.47;;;4.07;;
49784;SDS011;35679;38.732;-121.358;2022-12-13T13:43:27;4.30;;;3.90;;
49784;SDS011;35679;38.732;-121.358;2022-12-13T13:46:19;4.78;;;4.30;;
49784;SDS011;35679;38.732;-121.358;2022-12-13T13:49:08;4.50;;;4.10;;
49784;SDS011;35679;38.732;-121.358;2022-12-13T13:52:16;4.32;;;3.90;;
49784;SDS011;35679;38.732;-121.358;2022-12-13T13:58:55;4.40;;;4.10;;
49784;SDS011;35679;38.732;-121.358;2022-12-13T14:05:29;5.05;;;4.10;;
49784;SDS011;35679;38.732;-121.358;2022-12-13T14:22:24;6.47;;;4.05;;
49784;SDS011;35679;38.732;-121.358;2022-12-13T14:25:27;4.53;;;4.13;;
49784;SDS011;35679;38.732;-121.358;2022-12-13T14:31:52;4.40;;;4.00;;
49784;SDS011;35679;38.732;-121.358;2022-12-13T14:34:42;4.50;;;4.10;;
49784;SDS011;35679;38.732;-121.358;2022-12-13T14:37:33;4.43;;;4.03;;
49784;SDS011;35679;38.732;-121.358;2022-12-13T14:43:21;6.68;;;3.88;;
49784;SDS011;35679;38.732;-121.358;2022-12-13T14:46:14;4.50;;;4.10;;
49784;SDS011;35679;38.732;-121.358;2022-12-13T14:49:04;4.38;;;3.97;;
49784;SDS011;35679;38.732;-121.358;2022-12-13T14:51:58;4.55;;;4.10;;
49784;SDS011;35679;38.732;-121.358;2022-12-13T14:55:21;4.57;;;4.15;;
49784;SDS011;35679;38.732;-121.358;2022-12-13T14:58:18;4.47;;;4.18;;
49784;SDS011;35679;38.732;-121.358;2022-12-13T15:10:19;4.25;;;3.95;;
49784;SDS011;35679;38.732;-121.358;2022-12-13T15:16:26;4.40;;;4.00;;
49784;SDS011;35679;38.732;-121.358;2022-12-13T15:19:22;6.28;;;4.07;;
49784;SDS011;35679;38.732;-121.358;2022-12-13T15:22:23;4.60;;;3.65;;
49784;SDS011;35679;38.732;-121.358;2022-12-13T15:25:18;4.25;;;3.90;;
49784;SDS011;35679;38.732;-121.358;2022-12-13T15:28:10;3.90;;;3.58;;
49784;SDS011;35679;38.732;-121.358;2022-12-13T15:31:10;4.40;;;3.92;;
49784;SDS011;35679;38.732;-121.358;2022-12-13T15:37:19;4.07;;;3.63;;
49784;SDS011;35679;38.732;-121.358;2022-12-13T15:40:16;3.95;;;3.65;;
49784;SDS011;35679;38.732;-121.358;2022-12-13T15:43:11;6.47;;;4.03;;
49784;SDS011;35679;38.732;-121.358;2022-12-13T15:46:10;4.15;;;3.75;;
49784;SDS011;35679;38.732;-121.358;2022-12-13T15:49:00;3.90;;;3.65;;
49784;SDS011;35679;38.732;-121.358;2022-12-13T15:52:00;3.78;;;3.40;;
49784;SDS011;35679;38.732;-121.358;2022-12-13T15:57:50;4.07;;;3.60;;
49784;SDS011;35679;38.732;-121.358;2022-12-13T16:00:46;4.97;;;3.78;;
49784;SDS011;35679;38.732;-121.358;2022-12-13T16:03:41;3.53;;;3.33;;
49784;SDS011;35679;38.732;-121.358;2022-12-13T16:06:32;3.92;;;3.63;;
49784;SDS011;35679;38.732;-121.358;2022-12-13T16:09:23;4.20;;;3.58;;
49784;SDS011;35679;38.732;-121.358;2022-12-13T16:12:28;3.85;;;3.55;;
49784;SDS011;35679;38.732;-121.358;2022-12-13T16:15:48;4.63;;;3.75;;
49784;SDS011;35679;38.732;-121.358;2022-12-13T16:18:51;3.97;;;3.67;;
49784;SDS011;35679;38.732;-121.358;2022-12-13T16:21:45;4.10;;;3.80;;
49784;SDS011;35679;38.732;-121.358;2022-12-13T16:24:35;3.67;;;3.38;;
49784;SDS011;35679;38.732;-121.358;2022-12-13T16:27:25;3.88;;;3.58;;
49784;SDS011;35679;38.732;-121.358;2022-12-13T16:30:20;4.80;;;4.30;;
49784;SDS011;35679;38.732;-121.358;2022-12-13T16:33:12;4.82;;;3.63;;
49784;SDS011;35679;38.732;-121.358;2022-12-13T16:36:14;3.80;;;3.50;;
49784;SDS011;35679;38.732;-121.358;2022-12-13T16:39:03;3.75;;;3.45;;
49784;SDS011;35679;38.732;-121.358;2022-12-13T16:41:55;3.88;;;3.53;;
49784;SDS011;35679;38.732;-121.358;2022-12-13T16:44:45;4.55;;;3.58;;
49784;SDS011;35679;38.732;-121.358;2022-12-13T16:47:35;4.00;;;3.60;;
49784;SDS011;35679;38.732;-121.358;2022-12-13T16:50:34;3.53;;;3.13;;
49784;SDS011;35679;38.732;-121.358;2022-12-13T16:53:26;3.67;;;3.38;;
49784;SDS011;35679;38.732;-121.358;2022-12-13T16:56:16;3.97;;;3.55;;
49784;SDS011;35679;38.732;-121.358;2022-12-13T16:59:12;4.00;;;3.65;;
49784;SDS011;35679;38.732;-121.358;2022-12-13T17:02:03;3.88;;;3.58;;
49784;SDS011;35679;38.732;-121.358;2022-12-13T17:04:53;4.03;;;3.72;;
49784;SDS011;35679;38.732;-121.358;2022-12-13T17:07:43;4.25;;;3.83;;
49784;SDS011;35679;38.732;-121.358;2022-12-13T17:10:32;3.53;;;3.22;;
49784;SDS011;35679;38.732;-121.358;2022-12-13T17:13:22;3.92;;;3.53;;
49784;SDS011;35679;38.732;-121.358;2022-12-13T17:16:12;4.03;;;3.72;;
49784;SDS011;35679;38.732;-121.358;2022-12-13T17:19:05;4.50;;;3.53;;
49784;SDS011;35679;38.732;-121.358;2022-12-13T17:21:54;3.88;;;3.47;;
49784;SDS011;35679;38.732;-121.358;2022-12-13T17:24:45;3.53;;;3.22;;
49784;SDS011;35679;38.732;-121.358;2022-12-13T17:27:35;3.88;;;3.33;;
49784;SDS011;35679;38.732;-121.358;2022-12-13T17:30:25;3.83;;;3.53;;
49784;SDS011;35679;38.732;-121.358;2022-12-13T17:33:19;4.00;;;3.63;;
49784;SDS011;35679;38.732;-121.358;2022-12-13T17:36:09;4.10;;;3.70;;
49784;SDS011;35679;38.732;-121.358;2022-12-13T17:39:01;3.83;;;3.47;;
49784;SDS011;35679;38.732;-121.358;2022-12-13T17:41:51;3.72;;;3.42;;
49784;SDS011;35679;38.732;-121.358;2022-12-13T17:44:42;4.05;;;3.53;;
49784;SDS011;35679;38.732;-121.358;2022-12-13T17:47:31;3.83;;;3.53;;
49784;SDS011;35679;38.732;-121.358;2022-12-13T17:50:21;4.38;;;3.70;;
49784;SDS011;35679;38.732;-121.358;2022-12-13T17:53:10;4.60;;;3.50;;
49784;SDS011;35679;38.732;-121.358;2022-12-13T17:56:01;3.30;;;3.10;;
49784;SDS011;35679;38.732;-121.358;2022-12-13T17:58:53;3.47;;;3.28;;
49784;SDS011;35679;38.732;-121.358;2022-12-13T18:01:43;4.38;;;3.58;;
49784;SDS011;35679;38.732;-121.358;2022-12-13T18:04:33;3.60;;;3.40;;
49784;SDS011;35679;38.732;-121.358;2022-12-13T18:07:22;3.50;;;3.20;;
49784;SDS011;35679;38.732;-121.358;2022-12-13T18:10:12;3.45;;;3.15;;
49784;SDS011;35679;38.732;-121.358;2022-12-13T18:13:02;4.63;;;3.25;;
49784;SDS011;35679;38.732;-121.358;2022-12-13T18:15:52;4.40;;;3.22;;
49784;SDS011;35679;38.732;-121.358;2022-12-13T18:18:42;4.05;;;3.75;;
49784;SDS011;35679;38.732;-121.358;2022-12-13T18:21:41;3.67;;;3.38;;
49784;SDS011;35679;38.732;-121.358;2022-12-13T18:24:31;3.90;;;3.60;;
49784;SDS011;35679;38.732;-121.358;2022-12-13T18:27:20;3.45;;;3.25;;
49784;SDS011;35679;38.732;-121.358;2022-12-13T18:30:10;3.22;;;3.00;;
49784;SDS011;35679;38.732;-121.358;2022-12-13T18:33:00;3.47;;;3.17;;
49784;SDS011;35679;38.732;-121.358;2022-12-13T18:35:49;4.15;;;3.40;;
49784;SDS011;35679;38.732;-121.358;2022-12-13T18:38:39;3.33;;;3.10;;
49784;SDS011;35679;38.732;-121.358;2022-12-13T18:41:29;6.30;;;3.28;;
49784;SDS011;35679;38.732;-121.358;2022-12-13T18:44:19;3.67;;;3.33;;
49784;SDS011;35679;38.732;-121.358;2022-12-13T18:47:10;3.15;;;2.95;;
49784;SDS011;35679;38.732;-121.358;2022-12-13T18:50:07;3.60;;;3.33;;
49784;SDS011;35679;38.732;-121.358;2022-12-13T18:52:56;3.75;;;3.40;;
49784;SDS011;35679;38.732;-121.358;2022-12-13T18:55:46;3.47;;;3.17;;
49784;SDS011;35679;38.732;-121.358;2022-12-13T18:58:36;3.20;;;3.00;;
49784;SDS011;35679;38.732;-121.358;2022-12-13T19:01:27;3.55;;;3.25;;
49784;SDS011;35679;38.732;-121.358;2022-12-13T19:04:18;3.47;;;3.17;;
49784;SDS011;35679;38.732;-121.358;2022-12-13T19:07:08;3.15;;;2.95;;
49784;SDS011;35679;38.732;-121.358;2022-12-13T19:09:57;3.75;;;3.45;;
49784;SDS011;35679;38.732;-121.358;2022-12-13T19:12:47;3.20;;;3.00;;